sensor_id;sensor_type;location;lat;lon;timestamp;P1;durP1;ratioP1;P2;durP2;ratioP2
2362;SDS011;64265;51.664;7.626;2023-09-19T00:02:04;1.93;;;1.50;;
2362;SDS011;64265;51.664;7.626;2023-09-19T00:04:33;1.47;;;1.20;;
2362;SDS011;64265;51.664;7.626;2023-09-19T00:06:59;1.60;;;1.50;;
2362;SDS011;64265;51.664;7.626;2023-09-19T00:09:28;1.53;;;1.43;;
2362;SDS011;64265;51.664;7.626;2023-09-19T00:11:55;1.83;;;1.40;;
2362;SDS011;64265;51.664;7.626;2023-09-19T00:14:24;1.30;;;1.10;;
2362;SDS011;64265;51.664;7.626;2023-09-19T00:16:51;1.90;;;1.30;;
2362;SDS011;64265;51.664;7.626;2023-09-19T00:19:19;2.20;;;1.43;;
2362;SDS011;64265;51.664;7.626;2023-09-19T00:21:47;1.60;;;1.40;;
2362;SDS011;64265;51.664;7.626;2023-09-19T00:24:14;2.40;;;1.67;;
2362;SDS011;64265;51.664;7.626;2023-09-19T00:26:42;2.80;;;1.30;;
2362;SDS011;64265;51.664;7.626;2023-09-19T00:29:12;2.17;;;1.57;;
2362;SDS011;64265;51.664;7.626;2023-09-19T00:31:42;1.67;;;1.57;;
2362;SDS011;64265;51.664;7.626;2023-09-19T00:34:09;1.43;;;1.23;;
2362;SDS011;64265;51.664;7.626;2023-09-19T00:36:36;1.37;;;1.20;;
2362;SDS011;64265;51.664;7.626;2023-09-19T00:39:05;2.77;;;1.50;;
2362;SDS011;64265;51.664;7.626;2023-09-19T00:41:33;1.60;;;1.37;;
2362;SDS011;64265;51.664;7.626;2023-09-19T00:44:00;2.33;;;1.60;;
2362;SDS011;64265;51.664;7.626;2023-09-19T00:46:29;1.57;;;1.27;;
2362;SDS011;64265;51.664;7.626;2023-09-19T00:48:55;1.20;;;1.10;;
2362;SDS011;64265;51.664;7.626;2023-09-19T00:51:23;1.60;;;1.50;;
2362;SDS011;64265;51.664;7.626;2023-09-19T00:53:50;1.33;;;1.23;;
2362;SDS011;64265;51.664;7.626;2023-09-19T00:56:19;1.60;;;1.23;;
2362;SDS011;64265;51.664;7.626;2023-09-19T00:58:46;2.00;;;1.60;;
2362;SDS011;64265;51.664;7.626;2023-09-19T01:01:14;1.63;;;1.40;;
2362;SDS011;64265;51.664;7.626;2023-09-19T01:03:41;1.67;;;1.50;;
2362;SDS011;64265;51.664;7.626;2023-09-19T01:06:08;1.80;;;1.37;;
2362;SDS011;64265;51.664;7.626;2023-09-19T01:08:34;1.80;;;1.50;;
2362;SDS011;64265;51.664;7.626;2023-09-19T01:11:03;1.57;;;1.40;;
2362;SDS011;64265;51.664;7.626;2023-09-19T01:13:44;1.80;;;1.43;;
2362;SDS011;64265;51.664;7.626;2023-09-19T01:16:19;2.27;;;1.73;;
2362;SDS011;64265;51.664;7.626;2023-09-19T01:18:57;2.07;;;1.87;;
2362;SDS011;64265;51.664;7.626;2023-09-19T01:21:32;1.50;;;1.30;;
2362;SDS011;64265;51.664;7.626;2023-09-19T01:24:16;1.40;;;1.20;;
2362;SDS011;64265;51.664;7.626;2023-09-19T01:27:06;1.73;;;1.30;;
2362;SDS011;64265;51.664;7.626;2023-09-19T01:29:49;1.40;;;1.20;;
2362;SDS011;64265;51.664;7.626;2023-09-19T01:32:18;1.47;;;1.27;;
2362;SDS011;64265;51.664;7.626;2023-09-19T01:34:47;1.30;;;1.20;;
2362;SDS011;64265;51.664;7.626;2023-09-19T01:37:15;2.00;;;1.60;;
2362;SDS011;64265;51.664;7.626;2023-09-19T01:39:45;1.40;;;1.30;;
2362;SDS011;64265;51.664;7.626;2023-09-19T01:42:18;1.00;;;0.90;;
2362;SDS011;64265;51.664;7.626;2023-09-19T01:44:51;1.50;;;1.40;;
2362;SDS011;64265;51.664;7.626;2023-09-19T01:47:28;1.40;;;1.30;;
2362;SDS011;64265;51.664;7.626;2023-09-19T01:50:01;2.30;;;1.50;;
2362;SDS011;64265;51.664;7.626;2023-09-19T01:52:36;1.30;;;1.10;;
2362;SDS011;64265;51.664;7.626;2023-09-19T01:55:09;1.30;;;1.00;;
2362;SDS011;64265;51.664;7.626;2023-09-19T01:57:40;1.40;;;1.07;;
2362;SDS011;64265;51.664;7.626;2023-09-19T02:00:14;1.57;;;1.40;;
2362;SDS011;64265;51.664;7.626;2023-09-19T02:02:46;1.47;;;1.20;;
2362;SDS011;64265;51.664;7.626;2023-09-19T02:05:13;1.47;;;1.37;;
2362;SDS011;64265;51.664;7.626;2023-09-19T02:07:48;1.60;;;1.40;;
2362;SDS011;64265;51.664;7.626;2023-09-19T02:10:15;1.10;;;1.00;;
2362;SDS011;64265;51.664;7.626;2023-09-19T02:12:42;1.60;;;1.40;;
2362;SDS011;64265;51.664;7.626;2023-09-19T02:15:09;2.77;;;1.50;;
2362;SDS011;64265;51.664;7.626;2023-09-19T02:17:36;1.40;;;1.17;;
2362;SDS011;64265;51.664;7.626;2023-09-19T02:20:05;2.07;;;1.50;;
2362;SDS011;64265;51.664;7.626;2023-09-19T02:22:35;1.40;;;1.30;;
2362;SDS011;64265;51.664;7.626;2023-09-19T02:25:01;1.67;;;1.23;;
2362;SDS011;64265;51.664;7.626;2023-09-19T02:27:30;1.30;;;1.20;;
2362;SDS011;64265;51.664;7.626;2023-09-19T02:29:57;1.40;;;1.30;;
2362;SDS011;64265;51.664;7.626;2023-09-19T02:32:24;1.73;;;1.30;;
2362;SDS011;64265;51.664;7.626;2023-09-19T02:34:50;2.37;;;1.20;;
2362;SDS011;64265;51.664;7.626;2023-09-19T02:37:19;1.63;;;1.43;;
2362;SDS011;64265;51.664;7.626;2023-09-19T02:39:46;1.47;;;1.37;;
2362;SDS011;64265;51.664;7.626;2023-09-19T02:42:13;2.00;;;1.73;;
2362;SDS011;64265;51.664;7.626;2023-09-19T02:44:39;1.40;;;1.30;;
2362;SDS011;64265;51.664;7.626;2023-09-19T02:47:06;1.77;;;1.57;;
2362;SDS011;64265;51.664;7.626;2023-09-19T02:49:34;1.40;;;1.30;;
2362;SDS011;64265;51.664;7.626;2023-09-19T02:52:01;1.47;;;1.10;;
2362;SDS011;64265;51.664;7.626;2023-09-19T02:54:30;3.07;;;1.60;;
2362;SDS011;64265;51.664;7.626;2023-09-19T02:56:57;1.40;;;1.20;;
2362;SDS011;64265;51.664;7.626;2023-09-19T02:59:23;1.77;;;1.20;;
2362;SDS011;64265;51.664;7.626;2023-09-19T03:01:50;1.80;;;1.43;;
2362;SDS011;64265;51.664;7.626;2023-09-19T03:04:19;1.70;;;1.23;;
2362;SDS011;64265;51.664;7.626;2023-09-19T03:06:46;1.57;;;1.33;;
2362;SDS011;64265;51.664;7.626;2023-09-19T03:09:16;1.60;;;1.43;;
2362;SDS011;64265;51.664;7.626;2023-09-19T03:11:45;1.33;;;1.20;;
2362;SDS011;64265;51.664;7.626;2023-09-19T03:14:12;1.30;;;1.10;;
2362;SDS011;64265;51.664;7.626;2023-09-19T03:16:40;1.53;;;1.37;;
2362;SDS011;64265;51.664;7.626;2023-09-19T03:19:07;1.50;;;1.40;;
2362;SDS011;64265;51.664;7.626;2023-09-19T03:21:35;1.77;;;1.50;;
2362;SDS011;64265;51.664;7.626;2023-09-19T03:24:03;1.53;;;1.43;;
2362;SDS011;64265;51.664;7.626;2023-09-19T03:26:30;1.80;;;1.03;;
2362;SDS011;64265;51.664;7.626;2023-09-19T03:28:59;1.30;;;1.20;;
2362;SDS011;64265;51.664;7.626;2023-09-19T03:31:31;1.30;;;1.20;;
2362;SDS011;64265;51.664;7.626;2023-09-19T03:33:58;1.80;;;1.40;;
2362;SDS011;64265;51.664;7.626;2023-09-19T03:36:25;1.47;;;1.13;;
2362;SDS011;64265;51.664;7.626;2023-09-19T03:38:53;1.10;;;1.00;;
2362;SDS011;64265;51.664;7.626;2023-09-19T03:41:19;1.70;;;1.23;;
2362;SDS011;64265;51.664;7.626;2023-09-19T03:43:46;1.30;;;1.03;;
2362;SDS011;64265;51.664;7.626;2023-09-19T03:46:14;1.47;;;1.13;;
2362;SDS011;64265;51.664;7.626;2023-09-19T03:48:41;1.60;;;1.20;;
2362;SDS011;64265;51.664;7.626;2023-09-19T03:51:08;1.20;;;1.10;;
2362;SDS011;64265;51.664;7.626;2023-09-19T03:53:35;1.53;;;1.37;;
2362;SDS011;64265;51.664;7.626;2023-09-19T03:56:02;1.53;;;1.30;;
2362;SDS011;64265;51.664;7.626;2023-09-19T03:58:29;1.47;;;1.20;;
2362;SDS011;64265;51.664;7.626;2023-09-19T04:00:56;1.20;;;1.00;;
2362;SDS011;64265;51.664;7.626;2023-09-19T04:03:24;1.60;;;1.17;;
2362;SDS011;64265;51.664;7.626;2023-09-19T04:05:59;2.23;;;1.40;;
2362;SDS011;64265;51.664;7.626;2023-09-19T04:08:26;1.70;;;1.30;;
2362;SDS011;64265;51.664;7.626;2023-09-19T04:10:54;1.20;;;1.10;;
2362;SDS011;64265;51.664;7.626;2023-09-19T04:13:20;1.90;;;1.60;;
2362;SDS011;64265;51.664;7.626;2023-09-19T04:15:47;1.63;;;1.10;;
2362;SDS011;64265;51.664;7.626;2023-09-19T04:18:14;1.40;;;1.30;;
2362;SDS011;64265;51.664;7.626;2023-09-19T04:20:42;1.60;;;1.50;;
2362;SDS011;64265;51.664;7.626;2023-09-19T04:23:14;1.50;;;0.90;;
2362;SDS011;64265;51.664;7.626;2023-09-19T04:25:41;2.17;;;1.60;;
2362;SDS011;64265;51.664;7.626;2023-09-19T04:28:08;1.70;;;1.53;;
2362;SDS011;64265;51.664;7.626;2023-09-19T04:30:36;2.00;;;1.50;;
2362;SDS011;64265;51.664;7.626;2023-09-19T04:33:03;1.30;;;1.20;;
2362;SDS011;64265;51.664;7.626;2023-09-19T04:35:30;1.10;;;1.00;;
2362;SDS011;64265;51.664;7.626;2023-09-19T04:37:59;1.50;;;1.40;;
2362;SDS011;64265;51.664;7.626;2023-09-19T04:40:26;1.60;;;1.10;;
2362;SDS011;64265;51.664;7.626;2023-09-19T04:42:54;1.40;;;1.20;;
2362;SDS011;64265;51.664;7.626;2023-09-19T04:45:22;1.50;;;1.20;;
2362;SDS011;64265;51.664;7.626;2023-09-19T04:47:49;1.30;;;1.10;;
2362;SDS011;64265;51.664;7.626;2023-09-19T04:50:16;1.40;;;1.10;;
2362;SDS011;64265;51.664;7.626;2023-09-19T04:52:43;1.43;;;1.30;;
2362;SDS011;64265;51.664;7.626;2023-09-19T04:55:12;2.60;;;1.20;;
2362;SDS011;64265;51.664;7.626;2023-09-19T04:57:41;1.60;;;1.03;;
2362;SDS011;64265;51.664;7.626;2023-09-19T05:00:10;1.37;;;1.07;;
2362;SDS011;64265;51.664;7.626;2023-09-19T05:02:39;1.30;;;1.10;;
2362;SDS011;64265;51.664;7.626;2023-09-19T05:05:06;1.47;;;1.27;;
2362;SDS011;64265;51.664;7.626;2023-09-19T05:07:34;1.50;;;1.10;;
2362;SDS011;64265;51.664;7.626;2023-09-19T05:10:01;1.20;;;1.10;;
2362;SDS011;64265;51.664;7.626;2023-09-19T05:12:31;1.13;;;1.03;;
2362;SDS011;64265;51.664;7.626;2023-09-19T05:14:59;1.30;;;1.20;;
2362;SDS011;64265;51.664;7.626;2023-09-19T05:17:26;1.20;;;1.10;;
2362;SDS011;64265;51.664;7.626;2023-09-19T05:19:53;1.30;;;1.20;;
2362;SDS011;64265;51.664;7.626;2023-09-19T05:22:19;1.40;;;1.00;;
2362;SDS011;64265;51.664;7.626;2023-09-19T05:24:46;1.23;;;1.00;;
2362;SDS011;64265;51.664;7.626;2023-09-19T05:27:13;1.50;;;1.40;;
2362;SDS011;64265;51.664;7.626;2023-09-19T05:29:43;1.10;;;0.97;;
2362;SDS011;64265;51.664;7.626;2023-09-19T05:32:10;1.47;;;1.37;;
2362;SDS011;64265;51.664;7.626;2023-09-19T05:34:37;1.30;;;1.20;;
2362;SDS011;64265;51.664;7.626;2023-09-19T05:37:04;1.47;;;1.13;;
2362;SDS011;64265;51.664;7.626;2023-09-19T05:39:32;1.47;;;1.10;;
2362;SDS011;64265;51.664;7.626;2023-09-19T05:41:59;1.53;;;1.10;;
2362;SDS011;64265;51.664;7.626;2023-09-19T05:44:26;1.20;;;1.00;;
2362;SDS011;64265;51.664;7.626;2023-09-19T05:46:54;1.40;;;1.10;;
2362;SDS011;64265;51.664;7.626;2023-09-19T05:49:22;1.30;;;1.20;;
2362;SDS011;64265;51.664;7.626;2023-09-19T05:51:49;1.70;;;1.60;;
2362;SDS011;64265;51.664;7.626;2023-09-19T05:54:18;1.17;;;1.03;;
2362;SDS011;64265;51.664;7.626;2023-09-19T05:56:46;1.27;;;1.10;;
2362;SDS011;64265;51.664;7.626;2023-09-19T05:59:14;1.50;;;1.27;;
2362;SDS011;64265;51.664;7.626;2023-09-19T06:01:41;1.87;;;1.33;;
2362;SDS011;64265;51.664;7.626;2023-09-19T06:04:09;1.30;;;1.20;;
2362;SDS011;64265;51.664;7.626;2023-09-19T06:06:36;1.53;;;1.10;;
2362;SDS011;64265;51.664;7.626;2023-09-19T06:09:04;1.87;;;1.17;;
2362;SDS011;64265;51.664;7.626;2023-09-19T06:11:31;1.30;;;1.20;;
2362;SDS011;64265;51.664;7.626;2023-09-19T06:13:59;1.20;;;1.00;;
2362;SDS011;64265;51.664;7.626;2023-09-19T06:16:27;1.40;;;1.20;;
2362;SDS011;64265;51.664;7.626;2023-09-19T06:18:54;1.37;;;1.23;;
2362;SDS011;64265;51.664;7.626;2023-09-19T06:21:22;1.20;;;1.10;;
2362;SDS011;64265;51.664;7.626;2023-09-19T06:23:49;1.50;;;1.00;;
2362;SDS011;64265;51.664;7.626;2023-09-19T06:26:16;1.30;;;1.00;;
2362;SDS011;64265;51.664;7.626;2023-09-19T06:28:42;1.50;;;1.10;;
2362;SDS011;64265;51.664;7.626;2023-09-19T06:31:09;2.57;;;1.30;;
2362;SDS011;64265;51.664;7.626;2023-09-19T06:33:36;5.63;;;1.20;;
2362;SDS011;64265;51.664;7.626;2023-09-19T06:36:04;5.03;;;1.80;;
2362;SDS011;64265;51.664;7.626;2023-09-19T06:38:32;6.13;;;1.83;;
2362;SDS011;64265;51.664;7.626;2023-09-19T06:41:01;7.03;;;2.20;;
2362;SDS011;64265;51.664;7.626;2023-09-19T06:43:30;9.23;;;3.03;;
2362;SDS011;64265;51.664;7.626;2023-09-19T06:45:59;7.40;;;2.57;;
2362;SDS011;64265;51.664;7.626;2023-09-19T06:48:25;5.27;;;2.37;;
2362;SDS011;64265;51.664;7.626;2023-09-19T06:50:54;6.80;;;2.13;;
2362;SDS011;64265;51.664;7.626;2023-09-19T06:53:21;9.30;;;2.70;;
2362;SDS011;64265;51.664;7.626;2023-09-19T06:55:50;6.80;;;2.30;;
2362;SDS011;64265;51.664;7.626;2023-09-19T06:58:16;5.10;;;2.23;;
2362;SDS011;64265;51.664;7.626;2023-09-19T07:00:44;4.67;;;2.40;;
2362;SDS011;64265;51.664;7.626;2023-09-19T07:03:13;4.80;;;1.80;;
2362;SDS011;64265;51.664;7.626;2023-09-19T07:05:41;7.73;;;3.07;;
2362;SDS011;64265;51.664;7.626;2023-09-19T07:08:08;7.60;;;2.13;;
2362;SDS011;64265;51.664;7.626;2023-09-19T07:10:37;5.50;;;2.30;;
2362;SDS011;64265;51.664;7.626;2023-09-19T07:13:07;8.50;;;2.70;;
2362;SDS011;64265;51.664;7.626;2023-09-19T07:15:36;11.07;;;3.90;;
2362;SDS011;64265;51.664;7.626;2023-09-19T07:18:04;8.33;;;2.93;;
2362;SDS011;64265;51.664;7.626;2023-09-19T07:20:32;7.93;;;2.60;;
2362;SDS011;64265;51.664;7.626;2023-09-19T07:22:59;8.63;;;2.60;;
2362;SDS011;64265;51.664;7.626;2023-09-19T07:25:26;6.00;;;2.33;;
2362;SDS011;64265;51.664;7.626;2023-09-19T07:27:54;6.70;;;2.53;;
2362;SDS011;64265;51.664;7.626;2023-09-19T07:30:22;6.60;;;2.47;;
2362;SDS011;64265;51.664;7.626;2023-09-19T07:32:50;4.57;;;2.40;;
2362;SDS011;64265;51.664;7.626;2023-09-19T07:35:17;8.37;;;2.40;;
2362;SDS011;64265;51.664;7.626;2023-09-19T07:37:45;5.57;;;2.40;;
2362;SDS011;64265;51.664;7.626;2023-09-19T07:40:14;7.50;;;2.30;;
2362;SDS011;64265;51.664;7.626;2023-09-19T07:42:41;6.57;;;2.43;;
2362;SDS011;64265;51.664;7.626;2023-09-19T07:45:09;9.73;;;2.70;;
2362;SDS011;64265;51.664;7.626;2023-09-19T07:47:40;6.73;;;2.53;;
2362;SDS011;64265;51.664;7.626;2023-09-19T07:50:10;8.77;;;2.27;;
2362;SDS011;64265;51.664;7.626;2023-09-19T07:52:37;3.90;;;2.13;;
2362;SDS011;64265;51.664;7.626;2023-09-19T07:55:04;3.60;;;2.00;;
2362;SDS011;64265;51.664;7.626;2023-09-19T07:57:34;2.97;;;1.60;;
2362;SDS011;64265;51.664;7.626;2023-09-19T08:00:01;11.90;;;2.40;;
2362;SDS011;64265;51.664;7.626;2023-09-19T08:02:29;4.77;;;2.37;;
2362;SDS011;64265;51.664;7.626;2023-09-19T08:04:57;8.17;;;2.27;;
2362;SDS011;64265;51.664;7.626;2023-09-19T08:07:25;6.90;;;2.40;;
2362;SDS011;64265;51.664;7.626;2023-09-19T08:09:53;8.40;;;2.77;;
2362;SDS011;64265;51.664;7.626;2023-09-19T08:12:20;5.23;;;2.30;;
2362;SDS011;64265;51.664;7.626;2023-09-19T08:14:49;4.37;;;1.70;;
2362;SDS011;64265;51.664;7.626;2023-09-19T08:17:16;7.83;;;1.97;;
2362;SDS011;64265;51.664;7.626;2023-09-19T08:19:45;7.00;;;2.57;;
2362;SDS011;64265;51.664;7.626;2023-09-19T08:22:13;5.37;;;2.30;;
2362;SDS011;64265;51.664;7.626;2023-09-19T08:24:42;5.53;;;2.30;;
2362;SDS011;64265;51.664;7.626;2023-09-19T08:27:09;6.40;;;1.90;;
2362;SDS011;64265;51.664;7.626;2023-09-19T08:29:37;3.90;;;2.00;;
2362;SDS011;64265;51.664;7.626;2023-09-19T08:32:04;4.50;;;2.00;;
2362;SDS011;64265;51.664;7.626;2023-09-19T08:34:31;9.20;;;2.30;;
2362;SDS011;64265;51.664;7.626;2023-09-19T08:36:59;4.60;;;2.83;;
2362;SDS011;64265;51.664;7.626;2023-09-19T08:39:27;6.63;;;2.10;;
2362;SDS011;64265;51.664;7.626;2023-09-19T08:41:57;4.53;;;1.83;;
2362;SDS011;64265;51.664;7.626;2023-09-19T08:44:25;6.13;;;2.67;;
2362;SDS011;64265;51.664;7.626;2023-09-19T08:46:53;7.23;;;2.70;;
2362;SDS011;64265;51.664;7.626;2023-09-19T08:49:24;5.53;;;1.87;;
2362;SDS011;64265;51.664;7.626;2023-09-19T08:51:58;8.17;;;2.87;;
2362;SDS011;64265;51.664;7.626;2023-09-19T08:54:35;4.60;;;2.43;;
2362;SDS011;64265;51.664;7.626;2023-09-19T08:57:05;5.10;;;1.90;;
2362;SDS011;64265;51.664;7.626;2023-09-19T08:59:36;4.83;;;2.00;;
2362;SDS011;64265;51.664;7.626;2023-09-19T09:02:08;6.40;;;2.37;;
2362;SDS011;64265;51.664;7.626;2023-09-19T09:04:38;4.20;;;2.20;;
2362;SDS011;64265;51.664;7.626;2023-09-19T09:07:06;3.43;;;1.73;;
2362;SDS011;64265;51.664;7.626;2023-09-19T09:09:39;8.10;;;2.20;;
2362;SDS011;64265;51.664;7.626;2023-09-19T09:12:08;7.67;;;2.70;;
2362;SDS011;64265;51.664;7.626;2023-09-19T09:14:37;5.73;;;2.50;;
2362;SDS011;64265;51.664;7.626;2023-09-19T09:17:04;8.37;;;1.73;;
2362;SDS011;64265;51.664;7.626;2023-09-19T09:19:31;4.80;;;2.80;;
2362;SDS011;64265;51.664;7.626;2023-09-19T09:22:05;4.30;;;2.40;;
2362;SDS011;64265;51.664;7.626;2023-09-19T09:24:32;9.10;;;3.40;;
2362;SDS011;64265;51.664;7.626;2023-09-19T09:27:03;6.53;;;2.70;;
2362;SDS011;64265;51.664;7.626;2023-09-19T09:32:20;9.73;;;2.70;;
2362;SDS011;64265;51.664;7.626;2023-09-19T09:34:49;5.93;;;2.87;;
2362;SDS011;64265;51.664;7.626;2023-09-19T09:37:17;5.00;;;2.23;;
2362;SDS011;64265;51.664;7.626;2023-09-19T09:39:52;7.67;;;2.53;;
2362;SDS011;64265;51.664;7.626;2023-09-19T09:42:32;8.90;;;2.33;;
2362;SDS011;64265;51.664;7.626;2023-09-19T09:45:17;5.63;;;2.63;;
2362;SDS011;64265;51.664;7.626;2023-09-19T09:47:53;6.37;;;2.10;;
2362;SDS011;64265;51.664;7.626;2023-09-19T09:50:27;7.47;;;2.90;;
2362;SDS011;64265;51.664;7.626;2023-09-19T09:53:04;8.27;;;2.87;;
2362;SDS011;64265;51.664;7.626;2023-09-19T09:56:01;6.07;;;2.47;;
2362;SDS011;64265;51.664;7.626;2023-09-19T09:58:32;9.97;;;2.73;;
2362;SDS011;64265;51.664;7.626;2023-09-19T10:01:00;7.73;;;2.03;;
2362;SDS011;64265;51.664;7.626;2023-09-19T10:03:34;7.07;;;2.37;;
2362;SDS011;64265;51.664;7.626;2023-09-19T10:06:05;7.20;;;2.40;;
2362;SDS011;64265;51.664;7.626;2023-09-19T10:08:59;9.10;;;2.93;;
2362;SDS011;64265;51.664;7.626;2023-09-19T10:11:37;4.40;;;1.73;;
2362;SDS011;64265;51.664;7.626;2023-09-19T10:14:09;9.33;;;2.10;;
2362;SDS011;64265;51.664;7.626;2023-09-19T10:16:39;6.23;;;2.47;;
2362;SDS011;64265;51.664;7.626;2023-09-19T10:19:12;7.30;;;2.33;;
2362;SDS011;64265;51.664;7.626;2023-09-19T10:21:42;5.50;;;2.87;;
2362;SDS011;64265;51.664;7.626;2023-09-19T10:24:10;7.07;;;2.90;;
2362;SDS011;64265;51.664;7.626;2023-09-19T10:26:40;7.30;;;2.20;;
2362;SDS011;64265;51.664;7.626;2023-09-19T10:29:09;6.17;;;2.77;;
2362;SDS011;64265;51.664;7.626;2023-09-19T10:31:39;9.70;;;3.50;;
2362;SDS011;64265;51.664;7.626;2023-09-19T10:34:12;7.30;;;3.00;;
2362;SDS011;64265;51.664;7.626;2023-09-19T10:36:40;5.83;;;2.60;;
2362;SDS011;64265;51.664;7.626;2023-09-19T10:39:12;7.57;;;2.47;;
2362;SDS011;64265;51.664;7.626;2023-09-19T10:41:44;6.67;;;2.77;;
2362;SDS011;64265;51.664;7.626;2023-09-19T10:44:19;4.60;;;1.87;;
2362;SDS011;64265;51.664;7.626;2023-09-19T10:46:48;6.40;;;2.30;;
2362;SDS011;64265;51.664;7.626;2023-09-19T10:49:17;6.50;;;2.30;;
2362;SDS011;64265;51.664;7.626;2023-09-19T10:51:45;4.10;;;2.10;;
2362;SDS011;64265;51.664;7.626;2023-09-19T10:54:15;10.00;;;2.47;;
2362;SDS011;64265;51.664;7.626;2023-09-19T10:56:46;9.43;;;2.53;;
2362;SDS011;64265;51.664;7.626;2023-09-19T10:59:15;7.40;;;2.40;;
2362;SDS011;64265;51.664;7.626;2023-09-19T11:01:45;7.70;;;3.43;;
2362;SDS011;64265;51.664;7.626;2023-09-19T11:07:04;9.07;;;2.70;;
2362;SDS011;64265;51.664;7.626;2023-09-19T11:09:45;6.50;;;2.60;;
2362;SDS011;64265;51.664;7.626;2023-09-19T11:24:28;11.63;;;2.53;;
2362;SDS011;64265;51.664;7.626;2023-09-19T11:27:11;14.60;;;3.13;;
2362;SDS011;64265;51.664;7.626;2023-09-19T11:29:39;7.63;;;2.70;;
2362;SDS011;64265;51.664;7.626;2023-09-19T11:32:06;10.47;;;4.30;;
2362;SDS011;64265;51.664;7.626;2023-09-19T11:34:41;9.63;;;2.80;;
2362;SDS011;64265;51.664;7.626;2023-09-19T11:40:29;12.53;;;2.73;;
2362;SDS011;64265;51.664;7.626;2023-09-19T11:42:55;8.40;;;2.50;;
2362;SDS011;64265;51.664;7.626;2023-09-19T11:48:27;8.67;;;3.37;;
2362;SDS011;64265;51.664;7.626;2023-09-19T11:50:55;7.80;;;3.00;;
2362;SDS011;64265;51.664;7.626;2023-09-19T11:53:24;6.00;;;2.50;;
2362;SDS011;64265;51.664;7.626;2023-09-19T11:55:59;6.70;;;2.47;;
2362;SDS011;64265;51.664;7.626;2023-09-19T11:58:26;4.93;;;2.30;;
2362;SDS011;64265;51.664;7.626;2023-09-19T12:00:54;4.70;;;2.00;;
2362;SDS011;64265;51.664;7.626;2023-09-19T12:03:24;6.37;;;2.43;;
2362;SDS011;64265;51.664;7.626;2023-09-19T12:05:56;7.07;;;2.57;;
2362;SDS011;64265;51.664;7.626;2023-09-19T12:08:23;9.00;;;2.93;;
2362;SDS011;64265;51.664;7.626;2023-09-19T12:10:52;6.03;;;3.00;;
2362;SDS011;64265;51.664;7.626;2023-09-19T12:13:21;5.63;;;2.10;;
2362;SDS011;64265;51.664;7.626;2023-09-19T12:15:48;5.00;;;1.80;;
2362;SDS011;64265;51.664;7.626;2023-09-19T12:18:27;6.83;;;3.27;;
2362;SDS011;64265;51.664;7.626;2023-09-19T12:20:54;6.13;;;2.53;;
2362;SDS011;64265;51.664;7.626;2023-09-19T12:23:22;5.93;;;2.53;;
2362;SDS011;64265;51.664;7.626;2023-09-19T12:25:50;9.10;;;2.87;;
2362;SDS011;64265;51.664;7.626;2023-09-19T12:28:22;5.13;;;2.43;;
2362;SDS011;64265;51.664;7.626;2023-09-19T12:30:55;7.97;;;2.40;;
2362;SDS011;64265;51.664;7.626;2023-09-19T12:33:23;6.20;;;2.50;;
2362;SDS011;64265;51.664;7.626;2023-09-19T12:35:50;7.20;;;2.60;;
2362;SDS011;64265;51.664;7.626;2023-09-19T12:38:24;2.70;;;1.80;;
2362;SDS011;64265;51.664;7.626;2023-09-19T12:40:53;9.60;;;2.77;;
2362;SDS011;64265;51.664;7.626;2023-09-19T12:43:22;4.37;;;2.20;;
2362;SDS011;64265;51.664;7.626;2023-09-19T12:45:49;9.50;;;3.00;;
2362;SDS011;64265;51.664;7.626;2023-09-19T12:48:18;2.47;;;1.80;;
2362;SDS011;64265;51.664;7.626;2023-09-19T12:51:00;6.77;;;2.00;;
2362;SDS011;64265;51.664;7.626;2023-09-19T12:53:30;7.57;;;2.30;;
2362;SDS011;64265;51.664;7.626;2023-09-19T12:55:58;9.37;;;2.40;;
2362;SDS011;64265;51.664;7.626;2023-09-19T12:58:27;4.73;;;2.30;;
2362;SDS011;64265;51.664;7.626;2023-09-19T13:00:57;5.27;;;2.03;;
2362;SDS011;64265;51.664;7.626;2023-09-19T13:03:25;7.43;;;2.20;;
2362;SDS011;64265;51.664;7.626;2023-09-19T13:05:54;5.53;;;2.77;;
2362;SDS011;64265;51.664;7.626;2023-09-19T13:08:26;5.10;;;2.33;;
2362;SDS011;64265;51.664;7.626;2023-09-19T13:11:04;6.40;;;2.53;;
2362;SDS011;64265;51.664;7.626;2023-09-19T13:13:36;7.00;;;2.43;;
2362;SDS011;64265;51.664;7.626;2023-09-19T13:16:03;4.67;;;2.17;;
2362;SDS011;64265;51.664;7.626;2023-09-19T13:18:41;6.30;;;2.67;;
2362;SDS011;64265;51.664;7.626;2023-09-19T13:21:10;11.20;;;2.23;;
2362;SDS011;64265;51.664;7.626;2023-09-19T13:23:40;3.70;;;2.13;;
2362;SDS011;64265;51.664;7.626;2023-09-19T13:26:08;3.80;;;2.13;;
2362;SDS011;64265;51.664;7.626;2023-09-19T13:28:37;6.20;;;2.27;;
2362;SDS011;64265;51.664;7.626;2023-09-19T13:31:04;4.00;;;2.10;;
2362;SDS011;64265;51.664;7.626;2023-09-19T13:33:30;9.43;;;2.40;;
2362;SDS011;64265;51.664;7.626;2023-09-19T13:35:58;6.03;;;2.00;;
2362;SDS011;64265;51.664;7.626;2023-09-19T13:38:25;4.00;;;1.60;;
2362;SDS011;64265;51.664;7.626;2023-09-19T13:40:52;4.33;;;2.23;;
2362;SDS011;64265;51.664;7.626;2023-09-19T13:43:18;2.80;;;1.80;;
2362;SDS011;64265;51.664;7.626;2023-09-19T13:45:48;9.70;;;2.50;;
2362;SDS011;64265;51.664;7.626;2023-09-19T13:48:15;7.47;;;1.90;;
2362;SDS011;64265;51.664;7.626;2023-09-19T13:50:47;7.67;;;2.00;;
2362;SDS011;64265;51.664;7.626;2023-09-19T13:53:14;5.80;;;2.00;;
2362;SDS011;64265;51.664;7.626;2023-09-19T13:55:41;5.63;;;2.17;;
2362;SDS011;64265;51.664;7.626;2023-09-19T13:58:08;5.20;;;2.30;;
2362;SDS011;64265;51.664;7.626;2023-09-19T14:00:36;8.60;;;1.90;;
2362;SDS011;64265;51.664;7.626;2023-09-19T14:03:05;3.53;;;2.10;;
2362;SDS011;64265;51.664;7.626;2023-09-19T14:05:32;5.53;;;1.63;;
2362;SDS011;64265;51.664;7.626;2023-09-19T14:07:59;4.30;;;2.00;;
2362;SDS011;64265;51.664;7.626;2023-09-19T14:10:26;3.77;;;1.57;;
2362;SDS011;64265;51.664;7.626;2023-09-19T14:12:55;4.23;;;1.40;;
2362;SDS011;64265;51.664;7.626;2023-09-19T14:15:22;5.97;;;2.30;;
2362;SDS011;64265;51.664;7.626;2023-09-19T14:17:54;3.47;;;2.13;;
2362;SDS011;64265;51.664;7.626;2023-09-19T14:20:23;3.60;;;1.70;;
2362;SDS011;64265;51.664;7.626;2023-09-19T14:22:51;5.43;;;2.20;;
2362;SDS011;64265;51.664;7.626;2023-09-19T14:25:17;2.93;;;1.40;;
2362;SDS011;64265;51.664;7.626;2023-09-19T14:27:44;3.70;;;1.90;;
2362;SDS011;64265;51.664;7.626;2023-09-19T14:30:12;7.43;;;1.80;;
2362;SDS011;64265;51.664;7.626;2023-09-19T14:32:39;6.50;;;2.20;;
2362;SDS011;64265;51.664;7.626;2023-09-19T14:35:06;3.20;;;1.60;;
2362;SDS011;64265;51.664;7.626;2023-09-19T14:37:35;2.67;;;1.90;;
2362;SDS011;64265;51.664;7.626;2023-09-19T14:40:03;5.23;;;1.67;;
2362;SDS011;64265;51.664;7.626;2023-09-19T14:42:33;5.00;;;1.60;;
2362;SDS011;64265;51.664;7.626;2023-09-19T14:45:01;7.90;;;2.00;;
2362;SDS011;64265;51.664;7.626;2023-09-19T14:47:28;5.33;;;1.63;;
2362;SDS011;64265;51.664;7.626;2023-09-19T14:49:56;6.33;;;2.13;;
2362;SDS011;64265;51.664;7.626;2023-09-19T14:52:24;2.70;;;1.40;;
2362;SDS011;64265;51.664;7.626;2023-09-19T14:54:54;5.27;;;1.70;;
2362;SDS011;64265;51.664;7.626;2023-09-19T14:57:21;4.47;;;1.70;;
2362;SDS011;64265;51.664;7.626;2023-09-19T14:59:49;5.13;;;1.97;;
2362;SDS011;64265;51.664;7.626;2023-09-19T15:02:16;8.70;;;1.53;;
2362;SDS011;64265;51.664;7.626;2023-09-19T15:04:43;4.10;;;1.40;;
2362;SDS011;64265;51.664;7.626;2023-09-19T15:07:12;4.10;;;2.00;;
2362;SDS011;64265;51.664;7.626;2023-09-19T15:09:40;4.63;;;1.80;;
2362;SDS011;64265;51.664;7.626;2023-09-19T15:12:08;3.07;;;1.70;;
2362;SDS011;64265;51.664;7.626;2023-09-19T15:14:35;2.90;;;1.87;;
2362;SDS011;64265;51.664;7.626;2023-09-19T15:17:02;2.37;;;1.83;;
2362;SDS011;64265;51.664;7.626;2023-09-19T15:19:29;4.40;;;2.13;;
2362;SDS011;64265;51.664;7.626;2023-09-19T15:21:56;7.23;;;1.80;;
2362;SDS011;64265;51.664;7.626;2023-09-19T15:24:23;4.87;;;1.50;;
2362;SDS011;64265;51.664;7.626;2023-09-19T15:26:51;8.50;;;2.07;;
2362;SDS011;64265;51.664;7.626;2023-09-19T15:29:21;3.17;;;1.70;;
2362;SDS011;64265;51.664;7.626;2023-09-19T15:31:48;3.57;;;1.50;;
2362;SDS011;64265;51.664;7.626;2023-09-19T15:34:15;4.23;;;1.80;;
2362;SDS011;64265;51.664;7.626;2023-09-19T15:36:42;3.13;;;1.63;;